Terminal Aerodrome Forecast
Issued by NWS

Home | Current Version | Previous Version | Text Only | Print | Product List | Glossary On
Versions: 1 2 3 4 5 6 7 8 9 10 11 12 13 14 15 16 17 18 19 20 21 22 23 24 25 26 27 28 29 30
000
FTUS45 KGJT 261120
TAFEGE
TAF
KEGE 261120Z 2612/2712 09004KT P6SM SCT250
     FM261600 VRB03KT P6SM BKN250
     FM261800 05004KT P6SM VCTS SCT070CB BKN200
     FM262300 35006KT P6SM VCTS OVC070CB
     FM270000 34006KT P6SM VCSH OVC060
     FM270600 VRB03KT P6SM BKN045
      AMD LTD TO CLD VIS AND WIND TIL 261300=

USA.gov is the U.S. government's official web portal to all federal, state and local government web resources and services.